Aviation Digital Data Service (ADDS)

Output produced by TAFs form (1510 UTC 30 July 2014)
found at http://www.aviationweather.gov/adds/tafs/
 
KDEN 301503Z 04012KT 5SM -RA BR SCT006 BKN008 OVC055 15/14 A3032 RMK AO2 P0001 T01500139 $
KDEN 301504Z 3015/3118 05010KT 3SM -RA BR BKN005 OVC015 
     FM301600 06010KT P6SM FEW008 BKN015 OVC030 
     TEMPO 3016/3019 4SM SHRA BR BKN008 OVC015 
     FM301900 02012KT P6SM VCTS SCT025CB OVC035 
     TEMPO 3019/3023 5SM -SHRA BKN025 
     FM302300 33008KT P6SM SCT035 BKN060 
     PROB30 3100/3102 -SHRA BKN040 
     FM310400 24005KT P6SM SCT045 BKN080 
     FM311200 31005KT P6SM VCFG SCT006 SCT012 
     FM311500 22006KT P6SM SCT100